createdAt,value
2023-02-09T00:01:27.976Z,339.63
2023-02-09T00:03:55.814Z,357.50
2023-02-09T00:06:24.047Z,335.02
2023-02-09T00:08:51.959Z,331.25
2023-02-09T00:11:23.054Z,356.33
2023-02-09T00:13:50.830Z,333.15
2023-02-09T00:16:18.692Z,347.17
2023-02-09T00:18:46.559Z,339.17
2023-02-09T00:21:14.465Z,339.33
2023-02-09T00:23:42.310Z,362.98
2023-02-09T00:26:11.380Z,412.30
2023-02-09T00:28:41.492Z,446.27
2023-02-09T00:31:10.510Z,456.05
2023-02-09T00:33:41.234Z,366.83
2023-02-09T00:36:11.725Z,408.42
2023-02-09T00:38:39.739Z,398.63
2023-02-09T00:41:07.605Z,434.63
2023-02-09T00:43:35.605Z,410.40
2023-02-09T00:46:03.689Z,378.58
2023-02-09T00:48:31.437Z,421.85
2023-02-09T00:50:59.561Z,393.02
2023-02-09T00:53:27.566Z,370.23
2023-02-09T00:55:55.408Z,417.33
2023-02-09T00:58:23.744Z,399.75
2023-02-09T01:00:51.573Z,417.60
2023-02-09T01:03:19.571Z,414.58
2023-02-09T01:05:47.308Z,404.90
2023-02-09T01:08:15.054Z,407.00
2023-02-09T01:10:43.202Z,386.05
2023-02-09T01:13:11.142Z,396.08
2023-02-09T01:15:40.529Z,399.92
2023-02-09T01:18:08.327Z,378.70
2023-02-09T01:20:36.126Z,393.13
2023-02-09T01:23:03.966Z,400.02
2023-02-09T01:25:31.798Z,402.75
2023-02-09T01:27:59.791Z,401.55
2023-02-09T01:30:27.645Z,400.60
2023-02-09T01:32:56.170Z,388.70
2023-02-09T01:35:23.969Z,367.30
2023-02-09T01:37:51.737Z,379.58
2023-02-09T01:40:19.617Z,365.15
2023-02-09T01:42:47.387Z,375.38
2023-02-09T01:45:31.116Z,345.02
2023-02-09T01:48:00.779Z,344.13
2023-02-09T01:50:29.178Z,319.17
2023-02-09T01:52:57.529Z,308.02
2023-02-09T01:55:26.782Z,312.98
2023-02-09T01:57:57.667Z,281.65
2023-02-09T02:00:25.423Z,303.38
2023-02-09T02:03:04.934Z,285.40
2023-02-09T02:05:35.369Z,269.52
2023-02-09T02:08:37.778Z,284.70
2023-02-09T02:11:06.060Z,278.92
2023-02-09T02:13:33.795Z,283.05
2023-02-09T02:16:12.706Z,305.65
2023-02-09T02:18:54.695Z,279.10
2023-02-09T02:21:28.378Z,290.30
2023-02-09T02:24:01.981Z,389.33
2023-02-09T02:26:47.153Z,431.58
2023-02-09T02:30:03.482Z,532.08
2023-02-09T02:32:52.784Z,497.92
2023-02-09T02:35:41.349Z,554.47
2023-02-09T02:38:27.365Z,558.22
2023-02-09T02:41:04.274Z,530.55
2023-02-09T02:43:50.112Z,609.17
2023-02-09T02:46:56.185Z,557.78
2023-02-09T02:49:47.147Z,554.83
2023-02-09T02:52:15.005Z,526.28
2023-02-09T02:54:46.353Z,543.65
2023-02-09T02:57:24.644Z,530.53
2023-02-09T03:00:01.995Z,496.30
2023-02-09T03:02:39.264Z,486.70
2023-02-09T03:05:07.239Z,480.65
2023-02-09T03:07:35.221Z,475.17
2023-02-09T03:10:03.561Z,430.45
2023-02-09T03:12:59.202Z,452.17
2023-02-09T03:15:53.678Z,456.83
2023-02-09T03:18:59.797Z,446.52
2023-02-09T03:22:12.371Z,419.23
2023-02-09T03:24:42.840Z,427.50
2023-02-09T03:27:23.972Z,416.83
2023-02-09T03:29:55.274Z,398.13
2023-02-09T03:32:24.279Z,437.95
2023-02-09T03:34:53.317Z,435.75
2023-02-09T03:37:21.024Z,435.45
2023-02-09T03:39:48.783Z,457.33
2023-02-09T03:42:16.768Z,436.38
2023-02-09T03:44:44.704Z,487.67
2023-02-09T03:47:12.494Z,517.80
2023-02-09T03:49:41.038Z,487.88
2023-02-09T03:52:10.602Z,430.02
2023-02-09T03:54:38.452Z,436.42
2023-02-09T03:57:06.456Z,450.73
2023-02-09T03:59:38.078Z,457.42
2023-02-09T04:02:07.579Z,484.95
2023-02-09T04:04:35.452Z,490.23
2023-02-09T04:07:03.604Z,515.78
2023-02-09T04:09:31.477Z,526.13
2023-02-09T04:11:59.340Z,519.35
2023-02-09T04:14:27.182Z,515.25
2023-02-09T04:16:54.934Z,518.75
2023-02-09T04:19:22.761Z,500.58
2023-02-09T04:21:50.534Z,511.48
2023-02-09T04:24:26.975Z,494.08
2023-02-09T04:26:54.641Z,513.47
2023-02-09T04:29:22.374Z,533.67
2023-02-09T04:31:50.211Z,511.90
2023-02-09T04:34:18.043Z,506.70
2023-02-09T04:36:45.797Z,506.77
2023-02-09T04:39:13.592Z,534.83
2023-02-09T04:41:41.452Z,539.97
2023-02-09T04:44:09.386Z,537.33
2023-02-09T04:46:37.070Z,537.58
2023-02-09T04:49:04.835Z,537.92
2023-02-09T04:51:32.736Z,482.27
2023-02-09T04:54:00.605Z,344.48
2023-02-09T04:56:28.369Z,305.58
2023-02-09T04:59:14.874Z,267.40
2023-02-09T05:01:42.705Z,263.95
2023-02-09T05:04:10.497Z,267.60
2023-02-09T05:06:38.390Z,312.05
2023-02-09T05:09:06.078Z,390.63
2023-02-09T05:11:33.840Z,426.25
2023-02-09T05:14:01.582Z,454.58
2023-02-09T05:16:29.438Z,464.88
2023-02-09T05:18:57.333Z,493.42
2023-02-09T05:21:25.120Z,506.00
2023-02-09T05:23:52.980Z,500.52
2023-02-09T05:26:20.823Z,484.38
2023-02-09T05:28:48.655Z,499.63
2023-02-09T05:31:17.125Z,491.55
2023-02-09T05:33:45.042Z,496.15
2023-02-09T05:36:13.249Z,480.52
2023-02-09T05:38:41.329Z,491.08
2023-02-09T05:41:11.183Z,465.05
2023-02-09T05:43:38.975Z,426.38
2023-02-09T05:46:08.401Z,415.27
2023-02-09T05:48:36.456Z,395.35
2023-02-09T05:51:04.274Z,401.73
2023-02-09T05:53:32.049Z,394.38
2023-02-09T05:55:59.790Z,401.17
2023-02-09T05:58:27.638Z,395.67
2023-02-09T06:00:55.429Z,411.77
2023-02-09T06:03:23.288Z,354.08
2023-02-09T06:05:50.969Z,341.23
2023-02-09T06:08:18.743Z,367.55
2023-02-09T06:10:46.658Z,399.67
2023-02-09T06:13:14.884Z,378.98
2023-02-09T06:15:42.730Z,370.85
2023-02-09T06:18:10.670Z,407.42
2023-02-09T06:20:39.974Z,358.88
2023-02-09T06:23:07.917Z,365.55
2023-02-09T06:25:35.654Z,321.60
2023-02-09T06:28:03.476Z,340.10
2023-02-09T06:30:32.879Z,332.83
2023-02-09T06:33:00.798Z,333.08
2023-02-09T06:35:28.634Z,332.27
2023-02-09T06:37:59.509Z,322.17
2023-02-09T06:40:27.250Z,332.90
2023-02-09T06:42:55.119Z,300.08
2023-02-09T06:45:22.874Z,336.25
2023-02-09T06:47:50.535Z,328.10
2023-02-09T06:50:18.966Z,317.75
2023-02-09T06:52:47.029Z,323.33
2023-02-09T06:55:14.995Z,296.33
2023-02-09T06:57:42.723Z,335.63
2023-02-09T07:00:12.089Z,319.85
2023-02-09T07:02:41.667Z,273.58
2023-02-09T07:05:09.635Z,285.40
2023-02-09T07:07:37.653Z,293.38
2023-02-09T07:10:06.135Z,315.75
2023-02-09T07:12:34.092Z,316.35
2023-02-09T07:15:01.965Z,326.40
2023-02-09T07:17:30.758Z,328.90
2023-02-09T07:19:58.580Z,317.88
2023-02-09T07:22:26.344Z,291.90
2023-02-09T07:24:54.238Z,318.67
2023-02-09T07:27:22.106Z,308.80
2023-02-09T07:29:50.021Z,299.85
2023-02-09T07:32:17.721Z,298.60
2023-02-09T07:34:45.531Z,285.02
2023-02-09T07:37:13.311Z,261.48
2023-02-09T07:39:41.385Z,282.08
2023-02-09T07:42:09.320Z,270.88
2023-02-09T07:44:49.968Z,292.10
2023-02-09T07:47:17.808Z,275.95
2023-02-09T07:49:45.725Z,261.23
2023-02-09T07:52:13.533Z,256.90
2023-02-09T07:54:41.307Z,250.45
2023-02-09T07:57:09.102Z,242.10
2023-02-09T07:59:37.066Z,225.15
2023-02-09T08:02:05.334Z,186.07
2023-02-09T08:04:33.153Z,199.10
2023-02-09T08:07:01.053Z,198.63
2023-02-09T08:09:29.696Z,210.45
2023-02-09T08:11:59.322Z,212.93
2023-02-09T08:14:31.870Z,219.63
2023-02-09T08:17:31.589Z,215.68
2023-02-09T08:20:14.030Z,207.30
2023-02-09T08:22:43.939Z,230.98
2023-02-09T08:25:12.119Z,224.90
2023-02-09T08:27:39.951Z,244.30
2023-02-09T08:30:08.107Z,238.75
2023-02-09T08:32:36.153Z,217.55
2023-02-09T08:35:04.257Z,203.43
2023-02-09T08:37:32.061Z,222.93
2023-02-09T08:39:59.937Z,201.40
2023-02-09T08:42:27.707Z,220.48
2023-02-09T08:44:55.471Z,207.10
2023-02-09T08:47:23.371Z,191.00
2023-02-09T08:49:51.456Z,215.02
2023-02-09T08:52:19.371Z,197.30
2023-02-09T08:54:47.178Z,210.60
2023-02-09T08:57:14.971Z,223.02
2023-02-09T08:59:42.993Z,177.88
2023-02-09T09:02:10.772Z,166.93
2023-02-09T09:04:38.479Z,179.32
2023-02-09T09:07:06.251Z,157.32
2023-02-09T09:09:34.163Z,146.10
2023-02-09T09:12:02.061Z,145.35
2023-02-09T09:14:30.517Z,107.78
2023-02-09T09:16:59.062Z,83.90
2023-02-09T09:19:27.376Z,97.13
2023-02-09T09:21:55.225Z,90.82
2023-02-09T09:24:24.230Z,104.20
2023-02-09T09:26:52.216Z,100.80
2023-02-09T09:29:19.975Z,92.82
2023-02-09T09:31:47.912Z,91.00
2023-02-09T09:34:15.684Z,92.03
2023-02-09T09:36:43.339Z,99.97
2023-02-09T09:39:11.214Z,95.43
2023-02-09T09:41:39.093Z,94.72
2023-02-09T09:44:31.967Z,87.95
2023-02-09T09:47:01.800Z,105.57
2023-02-09T09:49:30.347Z,101.97
2023-02-09T09:52:39.455Z,101.13
2023-02-09T09:55:08.842Z,97.28
2023-02-09T09:57:39.259Z,83.10
2023-02-09T10:00:16.401Z,71.63
2023-02-09T10:02:44.994Z,105.57
2023-02-09T10:05:15.705Z,114.75
2023-02-09T10:07:44.393Z,125.28
2023-02-09T10:10:18.973Z,104.43
2023-02-09T10:12:49.247Z,101.65
2023-02-09T10:15:25.629Z,90.32
2023-02-09T10:17:53.592Z,74.78
2023-02-09T10:20:45.822Z,96.70
2023-02-09T10:23:25.370Z,115.53
2023-02-09T10:26:01.205Z,105.93
2023-02-09T10:28:34.026Z,103.78
2023-02-09T10:31:03.510Z,120.55
2023-02-09T10:33:41.461Z,101.82
2023-02-09T10:36:30.097Z,110.78
2023-02-09T10:39:12.911Z,117.85
2023-02-09T10:41:42.405Z,109.65
2023-02-09T10:44:17.429Z,108.80
2023-02-09T10:46:46.390Z,128.13
2023-02-09T10:49:53.262Z,124.63
2023-02-09T10:52:22.626Z,108.72
2023-02-09T10:54:57.860Z,95.25
2023-02-09T10:57:30.940Z,97.40
2023-02-09T11:00:00.745Z,99.90
2023-02-09T11:02:43.562Z,89.97
2023-02-09T11:05:23.411Z,105.93
2023-02-09T11:08:32.069Z,94.28
2023-02-09T11:11:03.592Z,82.40
2023-02-09T11:13:32.630Z,96.13
2023-02-09T11:16:20.861Z,93.22
2023-02-09T11:18:57.457Z,91.70
2023-02-09T11:22:01.991Z,78.05
2023-02-09T11:24:57.296Z,90.13
2023-02-09T11:27:47.041Z,81.88
2023-02-09T11:30:30.048Z,92.07
2023-02-09T11:33:08.522Z,79.00
2023-02-09T11:35:59.656Z,96.50
2023-02-09T11:38:36.152Z,86.82
2023-02-09T11:41:23.925Z,107.00
2023-02-09T11:43:51.822Z,98.00
2023-02-09T11:46:20.423Z,93.18
2023-02-09T11:48:58.190Z,90.78
2023-02-09T11:51:27.133Z,75.88
2023-02-09T11:54:09.023Z,82.90
2023-02-09T11:56:42.301Z,68.03
2023-02-09T11:59:43.733Z,99.88
2023-02-09T12:02:40.629Z,90.35
2023-02-09T12:05:11.678Z,100.95
2023-02-09T12:08:40.072Z,95.47
2023-02-09T12:11:29.513Z,73.13
2023-02-09T12:14:00.043Z,79.13
2023-02-09T12:16:40.018Z,61.63
2023-02-09T12:19:23.823Z,58.08
2023-02-09T12:21:51.738Z,89.68
2023-02-09T12:24:38.708Z,76.95
2023-02-09T12:27:27.472Z,39.55
2023-02-09T12:29:55.326Z,72.88
2023-02-09T12:32:31.022Z,75.50
2023-02-09T12:34:58.921Z,89.50
2023-02-09T12:37:29.091Z,81.30
2023-02-09T12:40:08.049Z,70.97
2023-02-09T12:42:59.057Z,73.78
2023-02-09T12:45:31.255Z,75.45
2023-02-09T12:48:20.311Z,45.00
2023-02-09T12:50:56.247Z,82.78
2023-02-09T12:53:24.232Z,77.80
2023-02-09T12:56:05.912Z,70.70
2023-02-09T12:58:38.728Z,69.95
2023-02-09T13:01:06.953Z,93.68
2023-02-09T13:03:40.559Z,73.40
2023-02-09T13:06:09.446Z,68.63
2023-02-09T13:08:38.865Z,82.78
2023-02-09T13:11:40.683Z,63.97
2023-02-09T13:14:10.098Z,56.72
2023-02-09T13:17:01.466Z,58.90
2023-02-09T13:19:48.257Z,76.82
2023-02-09T13:22:19.099Z,67.20
2023-02-09T13:25:09.538Z,74.57
2023-02-09T13:27:47.431Z,70.78
2023-02-09T13:30:35.667Z,56.47
2023-02-09T13:33:06.162Z,65.28
2023-02-09T13:35:40.707Z,73.15
2023-02-09T13:38:21.858Z,77.15
2023-02-09T13:40:50.427Z,88.28
2023-02-09T13:43:36.012Z,75.15
2023-02-09T13:46:04.219Z,81.80
2023-02-09T13:48:33.276Z,89.53
2023-02-09T13:51:02.857Z,85.90
2023-02-09T13:53:31.228Z,89.22
2023-02-09T13:56:00.415Z,82.85
2023-02-09T13:58:33.209Z,78.38
2023-02-09T14:01:04.047Z,83.47
2023-02-09T14:03:56.655Z,70.97
2023-02-09T14:06:45.793Z,80.47
2023-02-09T14:09:20.833Z,86.13
2023-02-09T14:12:11.380Z,64.32
2023-02-09T14:15:00.021Z,80.88
2023-02-09T14:17:32.627Z,65.70
2023-02-09T14:20:00.582Z,72.30
2023-02-09T14:22:38.907Z,86.38
2023-02-09T14:25:15.524Z,84.32
2023-02-09T14:27:46.782Z,75.95
2023-02-09T14:30:25.358Z,70.00
2023-02-09T14:32:57.303Z,72.00
2023-02-09T14:35:32.228Z,58.78
2023-02-09T14:38:01.571Z,53.78
2023-02-09T14:40:30.393Z,67.38
2023-02-09T14:43:14.052Z,61.05
2023-02-09T14:45:44.836Z,64.28
2023-02-09T14:48:23.069Z,61.58
2023-02-09T14:50:54.256Z,65.25
2023-02-09T14:53:22.555Z,69.65
2023-02-09T14:55:50.288Z,66.10
2023-02-09T14:58:22.914Z,57.78
2023-02-09T15:00:51.475Z,64.65
2023-02-09T15:03:19.329Z,58.80
2023-02-09T15:05:48.585Z,63.25
2023-02-09T15:08:20.997Z,63.72
2023-02-09T15:11:23.999Z,65.13
2023-02-09T15:16:25.947Z,214.80
2023-02-09T15:18:53.868Z,167.13
2023-02-09T15:21:21.541Z,112.47
2023-02-09T15:23:49.369Z,170.68
2023-02-09T15:26:17.952Z,159.88
2023-02-09T15:28:45.942Z,218.73
2023-02-09T15:31:16.065Z,455.77
2023-02-09T15:33:44.151Z,518.25
2023-02-09T15:36:17.345Z,548.88
2023-02-09T15:38:45.171Z,506.33
2023-02-09T15:41:31.120Z,567.30
2023-02-09T15:44:19.264Z,565.72
2023-02-09T15:47:05.255Z,597.13
2023-02-09T15:49:32.932Z,589.63
2023-02-09T15:52:00.846Z,582.75
2023-02-09T15:54:30.691Z,526.90
2023-02-09T15:56:59.465Z,483.95
2023-02-09T15:59:27.340Z,527.53
2023-02-09T16:01:55.734Z,483.13
2023-02-09T16:04:24.492Z,532.30
2023-02-09T16:06:53.452Z,511.95
2023-02-09T16:09:28.361Z,481.80
2023-02-09T16:11:56.267Z,490.25
2023-02-09T16:14:25.840Z,493.60
2023-02-09T16:16:53.819Z,472.48
2023-02-09T16:19:21.712Z,519.42
2023-02-09T16:21:54.729Z,513.42
2023-02-09T16:24:41.677Z,472.48
2023-02-09T16:27:23.855Z,393.90
2023-02-09T16:29:51.724Z,455.10
2023-02-09T16:32:22.447Z,428.10
2023-02-09T16:34:50.307Z,508.38
2023-02-09T16:37:29.085Z,440.83
2023-02-09T16:39:58.555Z,430.92
2023-02-09T16:42:26.403Z,420.27
2023-02-09T16:44:54.330Z,448.10
2023-02-09T16:47:23.062Z,464.73
2023-02-09T16:50:05.468Z,452.55
2023-02-09T16:55:02.156Z,416.30
2023-02-09T16:57:30.077Z,497.98
2023-02-09T16:59:57.912Z,534.80
2023-02-09T17:02:33.678Z,458.13
2023-02-09T17:05:02.460Z,501.52
2023-02-09T17:07:45.459Z,494.20
2023-02-09T17:10:22.506Z,497.25
2023-02-09T17:12:52.601Z,487.42
2023-02-09T17:15:30.002Z,515.85
2023-02-09T17:18:02.398Z,476.90
2023-02-09T17:20:42.694Z,471.77
2023-02-09T17:23:23.157Z,512.83
2023-02-09T17:25:51.993Z,534.58
2023-02-09T17:28:20.221Z,517.88
2023-02-09T17:30:50.006Z,523.08
2023-02-09T17:33:31.243Z,517.38
2023-02-09T17:38:47.417Z,536.78
2023-02-09T17:41:18.710Z,545.97
2023-02-09T17:43:46.876Z,612.80
2023-02-09T17:46:16.845Z,561.97
2023-02-09T17:48:45.797Z,533.05
2023-02-09T17:51:27.069Z,500.25
2023-02-09T17:53:55.902Z,447.15
2023-02-09T17:56:23.777Z,495.73
2023-02-09T17:58:51.623Z,452.52
2023-02-09T18:01:27.444Z,547.10
2023-02-09T18:03:56.635Z,535.80
2023-02-09T18:06:34.626Z,551.83
2023-02-09T18:09:03.699Z,557.10
2023-02-09T18:12:02.384Z,538.45
2023-02-09T18:14:32.033Z,535.60
2023-02-09T18:16:59.992Z,555.28
2023-02-09T18:19:27.900Z,570.80
2023-02-09T18:21:57.669Z,557.80
2023-02-09T18:24:27.523Z,544.42
2023-02-09T18:26:55.815Z,553.58
2023-02-09T18:29:24.129Z,554.97
2023-02-09T18:31:52.017Z,573.97
2023-02-09T18:34:20.239Z,543.95
2023-02-09T18:36:48.072Z,565.08
2023-02-09T18:39:16.366Z,584.35
2023-02-09T18:41:45.792Z,575.47
2023-02-09T18:44:13.751Z,612.38
2023-02-09T18:46:43.063Z,539.47
2023-02-09T18:49:12.513Z,518.67
2023-02-09T18:51:40.427Z,511.65
2023-02-09T18:54:08.252Z,546.70
2023-02-09T18:56:36.045Z,534.33
2023-02-09T18:59:03.892Z,565.63
2023-02-09T19:01:31.730Z,579.22
2023-02-09T19:03:59.463Z,521.30
2023-02-09T19:06:27.512Z,588.00
2023-02-09T19:08:55.260Z,425.05
2023-02-09T19:11:23.190Z,560.83
2023-02-09T19:14:09.251Z,426.13
2023-02-09T19:16:38.101Z,539.97
2023-02-09T19:19:05.992Z,538.42
2023-02-09T19:21:33.677Z,473.63
2023-02-09T19:24:02.829Z,478.15
2023-02-09T19:26:30.584Z,469.15
2023-02-09T19:28:58.360Z,503.58
2023-02-09T19:31:26.334Z,480.58
2023-02-09T19:33:57.937Z,468.77
2023-02-09T19:36:28.125Z,264.98
2023-02-09T19:38:56.503Z,283.40
2023-02-09T19:41:25.822Z,218.88
2023-02-09T19:43:57.568Z,249.05
2023-02-09T19:46:26.030Z,172.20
2023-02-09T19:48:56.414Z,315.90
2023-02-09T19:51:24.353Z,306.02
2023-02-09T19:53:52.146Z,201.02
2023-02-09T19:56:23.931Z,270.35
2023-02-09T19:58:51.824Z,262.10
2023-02-09T20:01:19.901Z,253.18
2023-02-09T20:03:49.811Z,213.93
2023-02-09T20:06:17.655Z,297.42
2023-02-09T20:08:45.495Z,271.98
2023-02-09T20:11:17.092Z,286.63
2023-02-09T20:13:44.961Z,292.13
2023-02-09T20:16:14.940Z,199.30
2023-02-09T20:18:43.972Z,277.13
2023-02-09T20:21:12.489Z,259.33
2023-02-09T20:23:40.289Z,282.50
2023-02-09T20:26:12.752Z,226.13
2023-02-09T20:28:40.759Z,181.55
2023-02-09T20:31:08.668Z,228.43
2023-02-09T20:33:37.331Z,238.05
2023-02-09T20:36:07.190Z,237.90
2023-02-09T20:38:35.450Z,264.08
2023-02-09T20:41:03.233Z,240.70
2023-02-09T20:43:49.251Z,260.50
2023-02-09T20:46:56.404Z,254.35
2023-02-09T20:49:26.338Z,261.10
2023-02-09T20:51:54.062Z,243.65
2023-02-09T20:54:21.925Z,245.05
2023-02-09T20:56:49.750Z,256.02
2023-02-09T20:59:17.851Z,292.73
2023-02-09T21:01:46.290Z,255.38
2023-02-09T21:04:14.152Z,264.45
2023-02-09T21:06:41.968Z,286.85
2023-02-09T21:09:11.557Z,292.83
2023-02-09T21:11:39.616Z,273.90
2023-02-09T21:14:07.593Z,270.48
2023-02-09T21:16:38.530Z,303.35
2023-02-09T21:19:06.358Z,299.95
2023-02-09T21:21:34.183Z,278.27
2023-02-09T21:24:01.951Z,287.75
2023-02-09T21:26:30.459Z,291.85
2023-02-09T21:28:58.407Z,251.52
2023-02-09T21:31:27.675Z,248.90
2023-02-09T21:33:55.534Z,271.83
2023-02-09T21:36:23.186Z,270.70
2023-02-09T21:38:50.944Z,268.63
2023-02-09T21:41:38.863Z,266.35
2023-02-09T21:44:07.134Z,282.42
2023-02-09T21:46:34.928Z,237.30
2023-02-09T21:49:02.892Z,226.93
2023-02-09T21:51:30.659Z,268.10
2023-02-09T21:53:58.398Z,276.08
2023-02-09T21:56:26.701Z,273.92
2023-02-09T21:58:54.761Z,267.60
2023-02-09T22:01:22.699Z,271.33
2023-02-09T22:03:57.468Z,254.38
2023-02-09T22:06:26.061Z,248.38
2023-02-09T22:08:54.109Z,265.70
2023-02-09T22:11:22.920Z,302.73
2023-02-09T22:13:50.748Z,253.98
2023-02-09T22:16:20.385Z,248.07
2023-02-09T22:18:48.185Z,236.88
2023-02-09T22:21:16.167Z,258.70
2023-02-09T22:23:44.126Z,263.65
2023-02-09T22:26:14.223Z,267.42
2023-02-09T22:28:42.251Z,262.00
2023-02-09T22:31:14.703Z,268.58
2023-02-09T22:33:42.608Z,221.77
2023-02-09T22:36:13.166Z,237.90
2023-02-09T22:38:41.287Z,211.32
2023-02-09T22:41:21.916Z,218.35
2023-02-09T22:44:02.951Z,254.88
2023-02-09T22:46:35.537Z,258.45
2023-02-09T22:49:08.397Z,250.93
2023-02-09T22:51:36.496Z,228.30
2023-02-09T22:54:04.751Z,209.05
2023-02-09T22:56:32.845Z,220.57
2023-02-09T22:59:01.106Z,239.80
2023-02-09T23:01:29.108Z,255.38
2023-02-09T23:03:57.341Z,243.63
2023-02-09T23:06:27.531Z,220.57
2023-02-09T23:08:56.763Z,267.65
2023-02-09T23:11:25.673Z,250.77
2023-02-09T23:14:08.397Z,252.50
2023-02-09T23:16:38.084Z,319.88
2023-02-09T23:19:07.361Z,313.52
2023-02-09T23:21:37.582Z,342.58
2023-02-09T23:24:05.580Z,336.83
2023-02-09T23:26:33.616Z,300.25
2023-02-09T23:29:03.136Z,344.58
2023-02-09T23:31:31.276Z,351.00
2023-02-09T23:33:59.060Z,363.45
2023-02-09T23:36:28.811Z,349.48
2023-02-09T23:38:58.841Z,347.40
2023-02-09T23:41:26.710Z,361.73
2023-02-09T23:43:54.785Z,342.25
2023-02-09T23:46:25.165Z,346.13
2023-02-09T23:48:54.981Z,276.45
2023-02-09T23:51:27.005Z,337.13
2023-02-09T23:53:55.270Z,323.85
2023-02-09T23:56:23.665Z,328.83
2023-02-09T23:58:52.192Z,317.98
